Terminal Aerodrome Forecast
Issued by NWS

Home | Current Version | Previous Version | Text Only | Print | Product List | Glossary On
Versions: 1 2 3 4 5 6 7 8 9 10 11 12 13 14 15 16 17 18 19 20 21 22 23 24
613
FTUS43 KLSX 122321
TAFUIN
TAF
KUIN 122321Z 1300/1324 33010KT P6SM SKC
     FM131700 VRB04KT P6SM SCT200
     FM132200 10004KT P6SM BKN200=

USA.gov is the U.S. government's official web portal to all federal, state and local government web resources and services.